Time;durP1;ratioP1;P1;durP2;ratioP2;P2;SDS_P1;SDS_P2;PMS_P1;PMS_P2;Temp;Humidity;BMP_temperature;BMP_pressure;BME280_temperature;BME280_humidity;BME280_pressure;Samples;Min_cycle;Max_cycle;Signal;HPM_P1;HPM_P2
2021/04/06 00:00:32;;;;;;;0.90;0.90;;;17.10;49.00;;;;;;5124693;28;20444;-38
2021/04/06 00:03:05;;;;;;;2.10;1.03;;;17.30;49.10;;;;;;5124442;28;20472;-39
2021/04/06 00:05:36;;;;;;;1.30;1.20;;;17.40;48.40;;;;;;5124669;28;20795;-39
2021/04/06 00:08:07;;;;;;;4.10;1.40;;;17.40;48.60;;;;;;5123924;28;20500;-39
2021/04/06 00:10:42;;;;;;;1.63;1.23;;;17.50;49.80;;;;;;5124251;28;20419;-39
2021/04/06 00:13:13;;;;;;;1.50;1.40;;;17.30;47.60;;;;;;5123467;28;20542;-40
2021/04/06 00:15:44;;;;;;;1.37;1.07;;;17.10;47.80;;;;;;5124406;28;20443;-38
2021/04/06 00:18:17;;;;;;;3.40;1.67;;;17.00;48.70;;;;;;5123768;28;20500;-38
2021/04/06 00:20:48;;;;;;;1.70;0.87;;;17.00;49.20;;;;;;5123592;28;20952;-39
2021/04/06 00:23:20;;;;;;;2.40;1.50;;;16.90;48.70;;;;;;5120295;28;20449;-37
2021/04/06 00:25:52;;;;;;;3.10;1.17;;;16.90;48.50;;;;;;5123887;28;20446;-37
2021/04/06 00:28:27;;;;;;;2.27;1.43;;;16.90;49.20;;;;;;5122332;28;20422;-40
2021/04/06 00:30:57;;;;;;;2.47;1.20;;;16.80;48.30;;;;;;5116260;28;20463;-39
2021/04/06 00:33:30;;;;;;;1.83;1.50;;;16.80;47.50;;;;;;5121529;28;20431;-37
2021/04/06 00:36:03;;;;;;;2.93;1.50;;;16.80;46.70;;;;;;5124396;28;20457;-38
2021/04/06 00:38:37;;;;;;;1.93;1.30;;;16.60;49.00;;;;;;5122905;28;20490;-39
2021/04/06 00:41:12;;;;;;;2.80;1.33;;;16.60;49.60;;;;;;5123741;28;20513;-40
2021/04/06 00:43:44;;;;;;;1.70;1.30;;;16.60;49.40;;;;;;5122133;28;20460;-37
2021/04/06 00:46:18;;;;;;;5.43;1.10;;;16.50;50.20;;;;;;5123777;28;20438;-38
2021/04/06 00:48:50;;;;;;;2.60;1.23;;;16.50;49.90;;;;;;5106889;28;20446;-39
2021/04/06 00:51:20;;;;;;;1.40;1.00;;;16.40;50.40;;;;;;5121535;28;20516;-40
2021/04/06 00:54:00;;;;;;;2.83;1.67;;;16.30;51.00;;;;;;5121563;28;20496;-39
2021/04/06 00:56:34;;;;;;;1.60;1.23;;;16.20;49.70;;;;;;5119765;28;20456;-39
2021/04/06 00:59:05;;;;;;;1.40;1.30;;;16.20;49.20;;;;;;5122892;28;20513;-40
2021/04/06 01:01:37;;;;;;;1.63;1.40;;;16.10;50.70;;;;;;5122467;28;20457;-37
2021/04/06 01:04:12;;;;;;;2.07;1.10;;;16.10;50.60;;;;;;5120022;28;20461;-39
2021/04/06 01:07:01;;;;;;;2.37;1.13;;;16.10;51.20;;;;;;5117391;28;20526;-39
2021/04/06 01:09:36;;;;;;;1.00;0.90;;;16.10;49.60;;;;;;5122328;28;20507;-37
2021/04/06 01:12:09;;;;;;;2.77;1.60;;;16.10;50.20;;;;;;5120558;28;20464;-39
2021/04/06 01:14:40;;;;;;;1.80;1.07;;;16.00;51.10;;;;;;5122728;28;20516;-39
2021/04/06 01:17:12;;;;;;;2.00;1.40;;;15.90;50.10;;;;;;5122136;28;20455;-40
2021/04/06 01:19:42;;;;;;;2.23;1.07;;;16.00;49.80;;;;;;5123169;28;20460;-40
2021/04/06 01:22:14;;;;;;;2.90;1.23;;;15.90;49.80;;;;;;5120964;28;20460;-40
2021/04/06 01:24:46;;;;;;;1.87;1.40;;;15.90;50.30;;;;;;5122425;28;20448;-37
2021/04/06 01:27:17;;;;;;;2.13;1.40;;;15.80;50.40;;;;;;5120292;28;20448;-38
2021/04/06 01:29:50;;;;;;;2.20;1.30;;;15.80;50.20;;;;;;5121453;28;20453;-39
2021/04/06 01:32:21;;;;;;;1.30;1.10;;;15.70;49.40;;;;;;5121770;28;20447;-37
2021/04/06 01:34:52;;;;;;;1.23;1.07;;;15.60;49.60;;;;;;5122523;28;20480;-39
2021/04/06 01:37:22;;;;;;;1.60;1.23;;;15.60;50.30;;;;;;5121389;28;20446;-39
2021/04/06 01:39:56;;;;;;;1.87;0.97;;;15.50;50.20;;;;;;5121268;28;20586;-38
2021/04/06 01:42:29;;;;;;;2.60;1.30;;;15.50;50.70;;;;;;5120788;28;20459;-39
2021/04/06 01:45:02;;;;;;;1.53;1.10;;;15.40;51.70;;;;;;5050260;28;2050751;-40
2021/04/06 01:47:33;;;;;;;1.73;1.00;;;15.30;50.80;;;;;;5121050;28;20196;-38
2021/04/06 01:50:04;;;;;;;2.93;0.97;;;15.30;50.20;;;;;;5123548;28;20442;-39
2021/04/06 01:52:35;;;;;;;2.53;1.80;;;15.20;51.30;;;;;;5122170;28;20523;-38
2021/04/06 01:55:13;;;;;;;2.20;1.50;;;15.10;51.30;;;;;;5122758;28;20550;-40
2021/04/06 01:57:47;;;;;;;2.10;1.27;;;15.10;51.30;;;;;;5121738;28;20458;-36
2021/04/06 02:00:26;;;;;;;2.70;1.70;;;15.00;51.50;;;;;;5122743;28;20490;-38
2021/04/06 02:03:02;;;;;;;1.90;1.70;;;14.90;51.30;;;;;;5122438;28;20438;-39
2021/04/06 02:05:32;;;;;;;2.73;1.37;;;14.90;52.20;;;;;;5122635;28;20759;-36
2021/04/06 02:08:08;;;;;;;1.33;1.23;;;14.70;51.80;;;;;;5122135;28;20508;-36
2021/04/06 02:10:39;;;;;;;2.03;1.43;;;14.70;52.90;;;;;;5122506;28;20449;-38
2021/04/06 02:13:12;;;;;;;2.00;1.07;;;14.60;53.70;;;;;;5121883;28;20511;-38
2021/04/06 02:15:53;;;;;;;1.37;1.23;;;14.50;53.20;;;;;;5122341;28;20459;-39
2021/04/06 02:18:24;;;;;;;2.00;1.40;;;14.40;54.40;;;;;;5122109;28;20443;-39
2021/04/06 02:20:56;;;;;;;1.60;1.43;;;14.40;54.30;;;;;;5122831;28;20449;-39
2021/04/06 02:23:27;;;;;;;1.93;1.37;;;14.30;54.30;;;;;;5120587;28;20447;-37
2021/04/06 02:25:58;;;;;;;1.83;1.50;;;14.20;54.50;;;;;;5122381;28;20457;-39
2021/04/06 02:28:29;;;;;;;2.40;1.40;;;14.30;54.00;;;;;;5111486;28;20549;-40
2021/04/06 02:31:00;;;;;;;2.57;1.47;;;14.10;54.40;;;;;;5122517;28;21837;-38
2021/04/06 02:33:32;;;;;;;2.70;1.90;;;14.00;55.70;;;;;;5121556;28;20460;-37
2021/04/06 02:36:04;;;;;;;2.83;1.90;;;13.90;56.10;;;;;;5123503;28;20540;-40
2021/04/06 02:38:35;;;;;;;2.47;1.67;;;14.00;55.70;;;;;;5111060;28;20794;-40
2021/04/06 02:41:22;;;;;;;2.50;1.50;;;14.00;55.60;;;;;;5115569;28;20450;-40
2021/04/06 02:43:54;;;;;;;4.90;3.30;;;13.90;56.20;;;;;;5125229;28;20845;-40
2021/04/06 02:46:27;;;;;;;3.60;3.20;;;13.80;56.50;;;;;;5125623;28;20446;-38
2021/04/06 02:49:00;;;;;;;3.30;1.83;;;13.80;57.00;;;;;;5125562;28;20469;-37
2021/04/06 02:51:30;;;;;;;3.47;2.10;;;13.80;58.00;;;;;;5124529;28;20459;-37
2021/04/06 02:54:00;;;;;;;2.80;1.80;;;13.80;57.70;;;;;;5125416;28;20445;-37
2021/04/06 02:56:36;;;;;;;3.43;2.13;;;13.70;59.20;;;;;;5124419;28;20446;-40
2021/04/06 02:59:16;;;;;;;5.23;3.00;;;13.50;59.90;;;;;;5125537;27;20544;-36
2021/04/06 03:01:47;;;;;;;1.97;1.77;;;13.50;60.00;;;;;;5120976;28;20450;-39
2021/04/06 03:04:25;;;;;;;3.57;2.00;;;13.40;60.20;;;;;;5121732;28;20449;-39
2021/04/06 03:06:57;;;;;;;2.57;1.77;;;13.40;60.50;;;;;;5125397;28;20434;-38
2021/04/06 03:09:27;;;;;;;4.07;2.53;;;13.40;60.80;;;;;;5125514;28;20501;-40
2021/04/06 03:11:58;;;;;;;3.40;2.40;;;13.30;62.00;;;;;;5124422;28;20831;-40
2021/04/06 03:14:29;;;;;;;2.70;2.30;;;13.20;63.80;;;;;;5125319;28;20491;-38
2021/04/06 03:16:59;;;;;;;2.70;2.20;;;13.20;65.20;;;;;;5125510;28;20471;-36
2021/04/06 03:19:33;;;;;;;3.27;1.80;;;13.10;66.40;;;;;;5125086;28;20477;-40
2021/04/06 03:22:06;;;;;;;3.80;2.60;;;13.00;67.90;;;;;;5112753;28;20505;-40
2021/04/06 03:24:37;;;;;;;3.60;2.40;;;12.90;68.00;;;;;;5125408;28;20441;-39
2021/04/06 03:27:09;;;;;;;5.70;3.27;;;12.80;69.50;;;;;;5124498;28;20574;-40
2021/04/06 03:29:39;;;;;;;5.87;2.20;;;12.80;69.80;;;;;;5122912;28;20448;-39
2021/04/06 03:32:11;;;;;;;5.23;2.90;;;12.70;71.70;;;;;;5124985;28;20512;-38
2021/04/06 03:34:42;;;;;;;4.03;3.00;;;12.70;72.70;;;;;;5124694;28;20479;-37
2021/04/06 03:37:13;;;;;;;3.87;2.70;;;12.60;73.10;;;;;;5125397;27;20558;-38
2021/04/06 03:39:43;;;;;;;3.67;2.53;;;12.50;75.00;;;;;;5124705;28;20529;-37
2021/04/06 03:42:24;;;;;;;4.87;3.27;;;12.40;75.70;;;;;;5108005;28;20517;-36
2021/04/06 03:45:06;;;;;;;4.67;2.50;;;12.30;76.80;;;;;;5124677;28;20542;-38
2021/04/06 03:47:56;;;;;;;3.40;2.70;;;12.30;77.80;;;;;;5124662;28;20456;-40
2021/04/06 03:50:38;;;;;;;3.53;2.77;;;12.20;78.90;;;;;;5123872;28;20452;-37
2021/04/06 03:53:09;;;;;;;8.80;2.97;;;12.00;81.00;;;;;;5123925;28;20456;-37
2021/04/06 03:55:41;;;;;;;3.80;2.47;;;11.90;82.20;;;;;;5124984;28;20204;-37
2021/04/06 03:58:16;;;;;;;3.10;2.30;;;11.80;84.20;;;;;;5123701;28;20525;-38
2021/04/06 04:00:46;;;;;;;5.13;2.20;;;11.70;85.40;;;;;;5125096;28;20484;-40
2021/04/06 04:03:18;;;;;;;4.20;2.77;;;11.60;87.40;;;;;;5123901;28;20499;-41
2021/04/06 04:05:50;;;;;;;6.23;2.30;;;11.50;87.90;;;;;;5123577;28;20961;-39
2021/04/06 04:08:21;;;;;;;3.03;2.43;;;11.50;89.40;;;;;;5123810;28;20882;-39
2021/04/06 04:10:51;;;;;;;5.60;2.70;;;11.40;89.90;;;;;;5140887;27;20453;-41
2021/04/06 04:13:22;;;;;;;6.23;2.43;;;11.50;90.00;;;;;;5123236;28;20444;-40
2021/04/06 04:15:53;;;;;;;7.20;3.17;;;11.40;90.70;;;;;;5123848;28;20456;-40
2021/04/06 04:18:23;;;;;;;4.43;2.30;;;11.20;91.50;;;;;;5123733;27;20266;-37
2021/04/06 04:20:53;;;;;;;6.03;2.50;;;11.20;91.80;;;;;;5123437;28;20333;-37
2021/04/06 04:23:23;;;;;;;6.10;2.88;;;11.10;92.50;;;;;;5123576;28;20545;-37
2021/04/06 04:25:53;;;;;;;6.20;2.65;;;11.10;92.00;;;;;;5123151;28;20243;-36
2021/04/06 04:28:24;;;;;;;3.25;2.67;;;11.00;92.20;;;;;;5124065;28;20193;-39
2021/04/06 04:30:54;;;;;;;7.70;3.20;;;10.90;92.80;;;;;;5123666;28;20245;-33
2021/04/06 04:33:24;;;;;;;5.22;2.78;;;10.80;92.90;;;;;;5123244;28;20200;-36
2021/04/06 04:35:54;;;;;;;5.72;3.10;;;10.70;93.80;;;;;;5123844;28;20308;-38
2021/04/06 04:38:24;;;;;;;8.20;4.25;;;10.70;94.00;;;;;;5123062;28;20223;-39
2021/04/06 04:40:55;;;;;;;4.55;2.65;;;10.60;94.20;;;;;;5123701;28;20232;-36
2021/04/06 04:43:26;;;;;;;7.78;2.35;;;10.50;94.50;;;;;;5106712;28;20673;-39
2021/04/06 04:46:14;;;;;;;4.25;2.85;;;10.50;94.80;;;;;;5124067;28;20303;-38
2021/04/06 04:48:44;;;;;;;6.07;2.90;;;10.40;95.40;;;;;;5123203;28;20213;-39
2021/04/06 04:51:14;;;;;;;7.18;3.38;;;10.30;95.90;;;;;;5123370;28;20660;-40
2021/04/06 04:53:44;;;;;;;6.57;2.60;;;10.30;95.80;;;;;;5123406;28;20216;-39
2021/04/06 04:56:16;;;;;;;4.47;3.08;;;10.20;96.30;;;;;;5123833;28;20212;-39
2021/04/06 04:58:47;;;;;;;4.57;2.20;;;10.20;96.40;;;;;;5122740;28;20289;-39
2021/04/06 05:01:17;;;;;;;6.75;3.05;;;10.10;97.30;;;;;;5123063;28;20205;-39
2021/04/06 05:03:47;;;;;;;7.53;2.63;;;10.00;97.30;;;;;;5125862;27;20204;-38
2021/04/06 05:06:17;;;;;;;4.10;2.10;;;10.00;97.30;;;;;;5123259;28;20214;-36
2021/04/06 05:08:47;;;;;;;5.63;2.80;;;9.90;98.00;;;;;;5123097;28;20536;-38
2021/04/06 05:11:17;;;;;;;5.25;2.50;;;9.80;99.20;;;;;;5123130;28;20193;-39
2021/04/06 05:13:48;;;;;;;4.00;2.10;;;9.80;99.20;;;;;;5123812;28;20504;-35
2021/04/06 05:16:18;;;;;;;5.68;2.60;;;9.70;99.40;;;;;;5123199;27;20196;-38
2021/04/06 05:18:48;;;;;;;8.13;2.40;;;9.60;99.70;;;;;;5122236;28;20205;-38
2021/04/06 05:21:18;;;;;;;4.88;2.70;;;9.60;99.90;;;;;;5122445;28;20210;-37
2021/04/06 05:23:48;;;;;;;6.10;3.00;;;9.60;99.90;;;;;;5109575;28;20226;-38
2021/04/06 05:26:18;;;;;;;6.32;2.13;;;9.50;99.90;;;;;;5121686;28;20410;-37
2021/04/06 05:28:49;;;;;;;3.63;2.40;;;9.40;99.90;;;;;;5123045;28;20197;-38
2021/04/06 05:31:19;;;;;;;4.10;2.83;;;9.40;99.90;;;;;;5122421;28;20196;-37
2021/04/06 05:33:49;;;;;;;7.00;3.25;;;9.30;99.90;;;;;;5122662;28;20336;-37
2021/04/06 05:36:19;;;;;;;5.72;3.28;;;9.20;99.90;;;;;;5122517;28;20207;-38
2021/04/06 05:38:49;;;;;;;5.03;2.17;;;9.20;99.90;;;;;;5122425;28;20192;-38
2021/04/06 05:41:20;;;;;;;6.15;2.38;;;9.10;99.90;;;;;;5122476;28;20192;-35
2021/04/06 05:44:00;;;;;;;4.50;2.58;;;9.10;99.90;;;;;;5122223;28;20232;-37
2021/04/06 05:46:32;;;;;;;6.32;2.58;;;9.00;99.90;;;;;;5119953;28;20275;-36
2021/04/06 05:49:05;;;;;;;5.32;2.40;;;8.90;99.90;;;;;;5122922;28;21032;-35
2021/04/06 05:51:37;;;;;;;4.50;2.75;;;8.90;99.90;;;;;;5121876;28;20297;-35
2021/04/06 05:54:08;;;;;;;3.90;2.67;;;8.80;99.90;;;;;;5121775;28;20203;-35
2021/04/06 05:56:38;;;;;;;7.53;2.55;;;8.80;99.90;;;;;;5121479;28;20248;-39
2021/04/06 05:59:09;;;;;;;7.32;2.55;;;8.70;99.90;;;;;;5123045;28;20220;-39
2021/04/06 06:01:41;;;;;;;5.30;2.80;;;8.60;99.90;;;;;;5122525;28;20207;-36
2021/04/06 06:04:12;;;;;;;3.92;2.40;;;8.60;99.90;;;;;;5122573;28;20211;-38
2021/04/06 06:06:42;;;;;;;4.60;2.50;;;8.50;99.90;;;;;;5121818;28;20223;-33
2021/04/06 06:09:13;;;;;;;4.28;2.67;;;8.60;99.90;;;;;;5109230;28;20196;-39
2021/04/06 06:11:59;;;;;;;7.57;2.53;;;8.50;99.90;;;;;;5121893;28;20264;-39
2021/04/06 06:14:32;;;;;;;7.05;3.70;;;8.50;99.90;;;;;;5123410;28;20195;-36
2021/04/06 06:17:16;;;;;;;4.53;2.67;;;8.40;99.90;;;;;;5121250;28;20239;-38
2021/04/06 06:19:47;;;;;;;5.00;2.58;;;8.40;99.90;;;;;;5126549;28;20219;-35
2021/04/06 06:22:19;;;;;;;3.90;2.50;;;8.40;99.90;;;;;;5120064;28;20216;-38
2021/04/06 06:24:50;;;;;;;5.90;3.60;;;8.30;99.90;;;;;;5126101;28;20241;-36
2021/04/06 06:27:38;;;;;;;5.43;2.83;;;8.30;99.90;;;;;;5125536;28;20199;-37
2021/04/06 06:30:28;;;;;;;6.20;3.20;;;8.30;99.90;;;;;;5126530;28;20200;-35
2021/04/06 06:33:16;;;;;;;4.95;3.47;;;8.20;99.90;;;;;;5125929;28;20231;-37
2021/04/06 06:35:48;;;;;;;5.20;3.15;;;8.20;99.90;;;;;;5125828;28;20337;-34
2021/04/06 06:38:20;;;;;;;4.40;3.30;;;8.10;99.90;;;;;;5125692;28;20200;-39
2021/04/06 06:40:52;;;;;;;5.72;2.95;;;8.10;99.90;;;;;;5126379;28;20386;-34
2021/04/06 06:43:24;;;;;;;4.93;3.78;;;8.00;99.90;;;;;;5125219;28;20196;-37
2021/04/06 06:45:55;;;;;;;8.88;3.95;;;8.00;99.90;;;;;;5125518;28;20289;-37
2021/04/06 06:48:30;;;;;;;6.95;2.63;;;8.00;99.90;;;;;;5125372;28;20203;-35
2021/04/06 06:51:01;;;;;;;4.70;3.05;;;7.90;99.90;;;;;;5126230;28;20191;-36
2021/04/06 06:53:37;;;;;;;7.20;3.53;;;7.80;99.90;;;;;;5125597;28;20204;-36
2021/04/06 06:56:10;;;;;;;3.75;2.72;;;7.80;99.90;;;;;;5125121;28;20200;-38
2021/04/06 06:58:42;;;;;;;6.22;3.88;;;7.80;99.90;;;;;;5123145;28;21695;-38
2021/04/06 07:01:24;;;;;;;7.95;4.07;;;7.70;99.90;;;;;;5125818;28;20215;-37
2021/04/06 07:04:05;;;;;;;6.55;3.00;;;7.70;99.90;;;;;;5118024;28;20208;-39
2021/04/06 07:06:36;;;;;;;5.88;3.53;;;7.60;99.90;;;;;;5125262;28;20199;-38
2021/04/06 07:09:23;;;;;;;4.75;2.67;;;7.70;99.90;;;;;;5125664;28;20554;-38
2021/04/06 07:11:54;;;;;;;7.30;3.08;;;7.60;99.90;;;;;;5125327;28;20256;-35
2021/04/06 07:14:26;;;;;;;4.80;2.92;;;7.60;99.90;;;;;;5125585;28;20268;-37
2021/04/06 07:16:58;;;;;;;6.88;3.50;;;7.60;99.90;;;;;;5124561;28;20200;-32
2021/04/06 07:19:31;;;;;;;7.90;3.40;;;7.60;99.90;;;;;;5125509;28;20204;-38
2021/04/06 07:22:06;;;;;;;3.58;2.85;;;7.50;99.90;;;;;;5124309;28;20291;-36
2021/04/06 07:24:40;;;;;;;4.22;3.30;;;7.40;99.90;;;;;;5121513;28;20275;-36
2021/04/06 07:27:13;;;;;;;6.43;3.33;;;7.40;99.90;;;;;;5124116;28;20196;-36
2021/04/06 07:29:44;;;;;;;6.45;3.53;;;7.50;99.90;;;;;;5122389;28;20211;-37
2021/04/06 07:32:16;;;;;;;6.28;3.10;;;7.40;99.90;;;;;;5125057;28;20240;-38
2021/04/06 07:34:46;;;;;;;6.97;4.00;;;7.40;99.90;;;;;;5125566;28;20188;-36
2021/04/06 07:37:16;;;;;;;5.60;3.33;;;7.40;99.90;;;;;;5123238;28;20196;-36
2021/04/06 07:39:48;;;;;;;12.57;3.20;;;7.30;99.90;;;;;;5124736;28;20215;-37
2021/04/06 07:42:18;;;;;;;7.28;3.50;;;7.30;99.90;;;;;;5123973;28;20252;-38
2021/04/06 07:44:49;;;;;;;8.63;3.40;;;7.30;99.90;;;;;;5125115;28;20326;-39
2021/04/06 07:47:37;;;;;;;6.20;3.33;;;7.30;99.90;;;;;;5124896;28;20200;-34
2021/04/06 07:50:13;;;;;;;8.80;3.60;;;7.20;99.90;;;;;;5124773;28;20227;-34
2021/04/06 07:52:43;;;;;;;4.22;3.13;;;7.20;99.90;;;;;;5122229;28;20207;-35
2021/04/06 07:55:14;;;;;;;7.53;3.63;;;7.10;99.90;;;;;;5124786;28;20278;-35
2021/04/06 07:57:47;;;;;;;8.90;3.63;;;7.10;99.90;;;;;;5123267;28;20203;-37
2021/04/06 08:00:50;;;;;;;5.20;3.65;;;7.10;99.90;;;;;;5124139;28;20227;-38
2021/04/06 08:03:52;;;;;;;5.30;3.20;;;7.10;99.90;;;;;;5124763;28;20204;-38
2021/04/06 08:06:25;;;;;;;8.68;3.95;;;7.00;99.90;;;;;;5123066;28;20199;-39
2021/04/06 08:08:55;;;;;;;6.00;3.30;;;7.00;99.90;;;;;;5123669;28;20238;-35
2021/04/06 08:12:06;;;;;;;9.27;3.42;;;7.00;99.90;;;;;;5124027;28;20249;-36
2021/04/06 08:14:37;;;;;;;8.85;3.50;;;7.00;99.90;;;;;;5123908;28;20218;-35
2021/04/06 08:17:59;;;;;;;4.47;2.65;;;6.90;99.90;;;;;;5123406;28;20240;-36
2021/04/06 08:20:38;;;;;;;5.53;3.05;;;6.90;99.90;;;;;;5124040;28;20345;-37
2021/04/06 08:23:14;;;;;;;6.60;3.38;;;6.80;99.90;;;;;;5124458;28;20291;-36
2021/04/06 08:25:52;;;;;;;6.93;3.20;;;6.90;99.90;;;;;;5124175;28;20280;-36
2021/04/06 08:28:39;;;;;;;5.35;3.70;;;6.80;99.90;;;;;;5123439;28;20307;-33
2021/04/06 08:31:33;;;;;;;6.40;2.92;;;6.70;99.90;;;;;;5123582;28;20200;-38
2021/04/06 08:34:40;;;;;;;4.32;2.92;;;6.70;99.90;;;;;;5123690;28;20290;-36
2021/04/06 08:37:15;;;;;;;6.30;2.90;;;6.70;99.90;;;;;;5122296;28;20200;-33
2021/04/06 08:39:48;;;;;;;4.97;2.85;;;6.70;99.90;;;;;;5123201;28;20750;-39
2021/04/06 08:42:19;;;;;;;8.13;3.00;;;6.60;99.90;;;;;;5121278;28;20236;-36
2021/04/06 08:44:58;;;;;;;8.02;3.20;;;6.60;99.90;;;;;;5123754;28;20223;-38
2021/04/06 08:47:46;;;;;;;5.97;3.20;;;6.60;99.90;;;;;;5123265;28;20196;-36
2021/04/06 08:50:33;;;;;;;7.53;3.50;;;6.60;99.90;;;;;;5124120;28;20206;-36
2021/04/06 08:53:05;;;;;;;5.97;3.35;;;6.50;99.90;;;;;;5123081;28;20214;-39
2021/04/06 08:55:37;;;;;;;4.05;2.88;;;6.50;99.90;;;;;;5123558;28;20212;-37
2021/04/06 08:58:07;;;;;;;4.88;3.00;;;6.40;99.90;;;;;;5122468;28;20215;-38
2021/04/06 09:00:37;;;;;;;7.10;2.83;;;6.40;99.90;;;;;;5123877;28;20617;-34
2021/04/06 09:03:08;;;;;;;5.25;3.53;;;6.30;99.90;;;;;;5123717;28;20183;-39
2021/04/06 09:05:38;;;;;;;10.23;4.20;;;6.30;99.90;;;;;;5123564;28;20200;-36
2021/04/06 09:08:25;;;;;;;8.13;3.47;;;6.20;99.90;;;;;;5122681;28;20199;-37
2021/04/06 09:11:06;;;;;;;9.98;3.42;;;6.20;99.90;;;;;;5123695;28;20196;-38
2021/04/06 09:13:38;;;;;;;6.40;3.40;;;6.20;99.90;;;;;;5121921;28;20663;-37
2021/04/06 09:16:10;;;;;;;6.40;4.22;;;6.20;99.90;;;;;;5123482;28;20196;-36
2021/04/06 09:18:40;;;;;;;7.10;4.13;;;6.10;99.90;;;;;;5122809;28;20308;-36
2021/04/06 09:21:10;;;;;;;4.25;3.20;;;6.10;99.90;;;;;;5123387;28;20220;-38
2021/04/06 09:23:40;;;;;;;8.65;3.63;;;6.10;99.90;;;;;;5122843;28;20211;-34
2021/04/06 09:26:15;;;;;;;8.77;3.60;;;6.10;99.90;;;;;;5123132;28;20320;-39
2021/04/06 09:28:45;;;;;;;10.27;3.63;;;6.10;99.90;;;;;;5123097;28;20199;-37
2021/04/06 09:31:16;;;;;;;6.90;3.20;;;6.10;99.90;;;;;;5123369;28;20200;-37
2021/04/06 09:33:46;;;;;;;5.80;3.42;;;6.10;99.90;;;;;;5122864;28;20253;-38
2021/04/06 09:36:16;;;;;;;9.52;4.00;;;6.00;99.90;;;;;;5122889;28;20234;-37
2021/04/06 09:38:46;;;;;;;3.75;3.17;;;6.10;99.90;;;;;;5122451;28;20200;-37
2021/04/06 09:41:17;;;;;;;8.05;4.00;;;6.00;99.90;;;;;;5123147;28;20537;-39
2021/04/06 09:44:08;;;;;;;6.07;4.47;;;6.00;99.90;;;;;;5122698;28;20199;-38
2021/04/06 09:46:40;;;;;;;9.68;3.72;;;5.90;99.90;;;;;;5122459;28;20228;-36
2021/04/06 09:49:11;;;;;;;6.00;3.83;;;5.70;99.90;;;;;;5124131;28;20196;-37
2021/04/06 09:52:01;;;;;;;6.97;4.00;;;5.60;99.90;;;;;;5126605;28;20915;-37
2021/04/06 09:54:32;;;;;;;6.82;3.70;;;5.60;99.90;;;;;;5127386;28;20253;-36
2021/04/06 09:57:10;;;;;;;4.43;3.40;;;5.60;99.90;;;;;;5126486;28;20199;-37
2021/04/06 09:59:41;;;;;;;4.90;3.83;;;5.50;99.90;;;;;;5126935;28;20195;-38
2021/04/06 10:02:16;;;;;;;8.00;3.88;;;5.50;99.90;;;;;;5126675;28;20200;-39
2021/04/06 10:04:48;;;;;;;6.65;4.03;;;5.50;99.90;;;;;;5126874;28;20276;-38
2021/04/06 10:07:46;;;;;;;5.10;3.72;;;5.50;99.90;;;;;;5126766;28;20616;-40
2021/04/06 10:10:22;;;;;;;10.88;4.35;;;5.50;99.90;;;;;;5126799;28;20199;-35
2021/04/06 10:12:54;;;;;;;7.80;3.80;;;5.40;99.90;;;;;;5126253;28;20191;-35
2021/04/06 10:15:26;;;;;;;7.43;3.50;;;5.30;99.90;;;;;;5126310;28;20249;-38
2021/04/06 10:17:56;;;;;;;6.80;3.85;;;5.30;99.90;;;;;;5126293;28;20196;-34
2021/04/06 10:20:37;;;;;;;7.65;3.97;;;5.20;99.90;;;;;;5127057;28;20633;-38
2021/04/06 10:23:07;;;;;;;6.20;3.55;;;5.10;99.90;;;;;;5126260;28;20249;-38
2021/04/06 10:25:40;;;;;;;8.27;4.28;;;5.20;99.90;;;;;;5126771;28;20200;-39
2021/04/06 10:28:22;;;;;;;4.68;3.65;;;5.20;99.90;;;;;;5125900;28;20192;-38
2021/04/06 10:30:58;;;;;;;4.82;3.25;;;5.10;99.90;;;;;;5127037;28;20228;-38
2021/04/06 10:33:30;;;;;;;4.72;3.15;;;5.00;99.90;;;;;;5125910;28;20225;-37
2021/04/06 10:36:05;;;;;;;8.98;3.30;;;5.00;99.90;;;;;;5126245;28;20200;-31
2021/04/06 10:38:37;;;;;;;5.80;3.33;;;4.90;99.90;;;;;;5123729;28;20200;-36
2021/04/06 10:41:08;;;;;;;7.18;3.47;;;4.90;99.90;;;;;;5126215;28;20268;-36
2021/04/06 10:43:43;;;;;;;5.50;3.20;;;4.90;99.90;;;;;;5125691;28;20272;-36
2021/04/06 10:46:16;;;;;;;4.28;3.30;;;4.90;99.90;;;;;;5121490;28;20202;-38
2021/04/06 10:48:48;;;;;;;6.85;3.28;;;4.80;99.90;;;;;;5125805;28;20663;-35
2021/04/06 10:51:19;;;;;;;9.57;3.13;;;4.80;99.90;;;;;;5125979;28;20352;-38
2021/04/06 10:53:50;;;;;;;9.90;3.83;;;4.80;99.90;;;;;;5123658;28;20206;-36
2021/04/06 10:56:22;;;;;;;7.20;3.92;;;4.80;99.90;;;;;;5125260;28;20215;-36
2021/04/06 10:58:56;;;;;;;8.60;4.50;;;4.80;99.90;;;;;;5126260;28;20200;-37
2021/04/06 11:01:28;;;;;;;7.88;4.03;;;4.80;99.90;;;;;;5125271;28;20219;-33
2021/04/06 11:03:59;;;;;;;3.85;2.97;;;4.80;99.90;;;;;;5125212;28;20203;-35
2021/04/06 11:06:32;;;;;;;6.22;3.90;;;4.80;99.90;;;;;;5124806;28;20200;-34
2021/04/06 11:09:03;;;;;;;9.13;3.90;;;4.80;99.90;;;;;;5119073;28;20561;-36
2021/04/06 11:11:35;;;;;;;6.45;3.42;;;4.70;99.90;;;;;;5123809;28;20297;-37
2021/04/06 11:14:09;;;;;;;4.63;4.18;;;4.70;99.90;;;;;;5125900;28;20237;-36
2021/04/06 11:16:40;;;;;;;3.83;3.42;;;4.60;99.90;;;;;;5125386;28;20192;-39
2021/04/06 11:19:12;;;;;;;14.30;4.28;;;4.50;99.90;;;;;;5118446;28;20217;-38
2021/04/06 11:21:44;;;;;;;6.97;3.75;;;4.50;99.90;;;;;;5124895;28;20257;-36
2021/04/06 11:24:16;;;;;;;7.95;4.50;;;4.50;99.90;;;;;;5124853;28;20221;-35
2021/04/06 11:26:47;;;;;;;4.53;3.20;;;4.50;99.90;;;;;;5124194;28;20254;-37
2021/04/06 11:29:23;;;;;;;6.57;4.22;;;4.50;99.90;;;;;;5125459;28;20196;-35
2021/04/06 11:31:57;;;;;;;6.20;3.58;;;4.50;99.90;;;;;;5124890;28;20188;-38
2021/04/06 11:34:28;;;;;;;9.95;4.28;;;4.50;99.90;;;;;;5125163;28;20276;-37
2021/04/06 11:36:58;;;;;;;8.52;3.85;;;4.40;99.90;;;;;;5124515;28;20200;-36
2021/04/06 11:39:33;;;;;;;6.45;3.47;;;4.40;99.90;;;;;;5125347;28;20200;-35
2021/04/06 11:42:05;;;;;;;4.00;3.38;;;4.40;99.90;;;;;;5123522;28;20247;-37
2021/04/06 11:44:56;;;;;;;10.68;3.22;;;4.30;99.90;;;;;;5124583;28;20230;-35
2021/04/06 11:47:26;;;;;;;4.47;3.05;;;4.30;99.90;;;;;;5125022;28;20218;-39
2021/04/06 11:49:56;;;;;;;7.07;3.50;;;4.20;99.90;;;;;;5123922;28;20196;-37
2021/04/06 11:52:26;;;;;;;3.95;3.30;;;4.20;99.90;;;;;;5124024;28;20264;-36
2021/04/06 11:54:56;;;;;;;3.75;3.45;;;4.20;99.90;;;;;;5123821;28;20609;-37
2021/04/06 11:57:26;;;;;;;4.75;3.35;;;4.20;99.90;;;;;;5124843;27;20208;-38
2021/04/06 11:59:57;;;;;;;8.30;3.50;;;4.20;99.90;;;;;;5124601;28;20248;-34
2021/04/06 12:02:27;;;;;;;5.00;3.45;;;4.10;99.90;;;;;;5124651;28;20553;-34
2021/04/06 12:04:57;;;;;;;8.25;3.22;;;4.10;99.90;;;;;;5124624;28;20260;-37
2021/04/06 12:07:27;;;;;;;4.47;3.45;;;4.10;99.90;;;;;;5124359;28;20200;-32
2021/04/06 12:09:58;;;;;;;8.15;3.97;;;4.10;99.90;;;;;;5124022;28;20267;-35
2021/04/06 12:12:28;;;;;;;5.85;3.30;;;4.00;99.90;;;;;;5122899;28;20226;-34
2021/04/06 12:15:00;;;;;;;6.60;3.53;;;3.90;99.90;;;;;;5124635;28;20183;-37
2021/04/06 12:17:29;;;;;;;5.03;3.00;;;3.90;99.90;;;;;;5124971;28;20188;-39
2021/04/06 12:20:00;;;;;;;6.68;3.80;;;3.90;99.90;;;;;;5123708;28;20663;-34
2021/04/06 12:22:30;;;;;;;4.43;3.60;;;4.00;99.90;;;;;;5114483;28;20218;-37
2021/04/06 12:25:00;;;;;;;8.63;3.40;;;4.00;99.90;;;;;;5123513;27;20204;-36
2021/04/06 12:27:30;;;;;;;4.78;3.17;;;3.90;99.90;;;;;;5122986;28;20218;-35
2021/04/06 12:30:01;;;;;;;8.85;3.97;;;3.90;99.90;;;;;;5123974;28;20666;-33
2021/04/06 12:32:31;;;;;;;5.20;2.97;;;3.80;99.90;;;;;;5115507;28;20689;-35
2021/04/06 12:35:01;;;;;;;5.18;4.28;;;3.80;99.90;;;;;;5123456;28;20210;-37
2021/04/06 12:37:32;;;;;;;4.68;3.33;;;3.80;99.90;;;;;;5124126;28;20219;-35
2021/04/06 12:40:07;;;;;;;6.30;3.50;;;3.90;99.90;;;;;;5120707;28;20194;-37
2021/04/06 12:42:39;;;;;;;6.15;3.55;;;3.80;99.90;;;;;;5112348;28;20260;-33
2021/04/06 12:45:15;;;;;;;4.70;3.95;;;3.80;99.90;;;;;;5123452;28;20236;-33
2021/04/06 12:47:45;;;;;;;7.55;2.90;;;3.90;99.90;;;;;;5123525;28;20199;-37
2021/04/06 12:50:16;;;;;;;6.13;3.15;;;3.90;99.90;;;;;;5123467;28;20229;-36
2021/04/06 12:52:46;;;;;;;7.30;3.25;;;3.90;99.90;;;;;;5123705;28;20225;-39
2021/04/06 12:55:16;;;;;;;7.60;3.60;;;3.80;99.90;;;;;;5124006;28;20193;-38
2021/04/06 12:57:47;;;;;;;4.68;3.13;;;3.70;99.90;;;;;;5122261;28;20243;-35
2021/04/06 13:00:19;;;;;;;8.75;3.50;;;3.80;99.90;;;;;;5123599;28;20215;-38
2021/04/06 13:02:51;;;;;;;6.00;3.78;;;3.70;99.90;;;;;;5123497;28;20207;-38
2021/04/06 13:05:21;;;;;;;6.15;4.15;;;3.70;99.90;;;;;;5122860;28;20199;-37
2021/04/06 13:07:53;;;;;;;6.97;3.35;;;3.70;99.90;;;;;;5123495;28;20200;-33
2021/04/06 13:10:23;;;;;;;3.63;3.22;;;3.80;99.90;;;;;;5122901;28;20200;-36
2021/04/06 13:12:55;;;;;;;3.72;3.15;;;3.80;99.90;;;;;;5122086;28;20200;-37
2021/04/06 13:15:27;;;;;;;8.52;3.88;;;3.70;99.90;;;;;;5123527;28;20184;-35
2021/04/06 13:17:57;;;;;;;5.07;3.38;;;3.70;99.90;;;;;;5122358;28;20192;-32
2021/04/06 13:20:28;;;;;;;4.90;3.42;;;3.60;99.90;;;;;;5123071;28;20663;-38
2021/04/06 13:23:01;;;;;;;6.13;3.30;;;3.70;99.90;;;;;;5123013;28;20207;-33
2021/04/06 13:25:31;;;;;;;8.88;4.13;;;3.70;99.90;;;;;;5123276;28;20203;-36